createdAt,value
2019-03-16T00:00:32.516Z,75.37
2019-03-16T00:05:34.035Z,74.64
2019-03-16T00:10:35.552Z,76.45
2019-03-16T00:15:37.067Z,77.08
2019-03-16T00:20:38.596Z,78.31
2019-03-16T00:25:40.128Z,78.73
2019-03-16T00:30:41.618Z,79.14
2019-03-16T00:35:43.189Z,79.70
2019-03-16T00:40:44.699Z,79.87
2019-03-16T00:45:46.248Z,79.54
2019-03-16T00:50:47.726Z,79.02
2019-03-16T00:55:49.290Z,79.55
2019-03-16T01:00:50.792Z,79.83
2019-03-16T01:05:52.369Z,79.69
2019-03-16T01:10:53.849Z,79.99
2019-03-16T01:15:55.370Z,80.16
2019-03-16T01:20:56.867Z,80.20
2019-03-16T01:25:58.386Z,80.17
2019-03-16T01:30:59.970Z,80.42
2019-03-16T01:36:01.480Z,80.46
2019-03-16T01:41:03.175Z,80.66
2019-03-16T01:46:04.689Z,80.62
2019-03-16T01:51:06.196Z,80.80
2019-03-16T01:56:07.768Z,80.98
2019-03-16T02:01:09.309Z,81.07
2019-03-16T02:06:11.735Z,81.05
2019-03-16T02:11:13.233Z,80.97
2019-03-16T02:16:15.296Z,80.82
2019-03-16T02:21:16.792Z,81.14
2019-03-16T02:26:18.317Z,81.10
2019-03-16T02:31:19.842Z,81.03
2019-03-16T02:36:21.368Z,81.00
2019-03-16T02:41:22.905Z,80.83
2019-03-16T02:46:24.442Z,81.04
2019-03-16T02:51:26.193Z,81.01
2019-03-16T02:56:27.721Z,81.09
2019-03-16T03:01:29.255Z,81.21
2019-03-16T03:06:30.792Z,81.39
2019-03-16T03:11:32.318Z,81.62
2019-03-16T03:16:33.815Z,81.87
2019-03-16T03:21:35.372Z,81.85
2019-03-16T03:26:37.212Z,82.03
2019-03-16T03:31:38.788Z,82.05
2019-03-16T03:36:40.289Z,82.23
2019-03-16T03:41:41.834Z,82.33
2019-03-16T03:46:43.333Z,82.50
2019-03-16T03:51:44.972Z,82.53
2019-03-16T03:56:46.447Z,82.63
2019-03-16T04:01:47.972Z,82.58
2019-03-16T04:06:49.476Z,82.75
2019-03-16T04:11:51.024Z,82.70
2019-03-16T04:16:52.631Z,82.58
2019-03-16T04:21:54.156Z,82.59
2019-03-16T04:26:55.682Z,82.54
2019-03-16T04:31:57.212Z,82.55
2019-03-16T04:36:58.719Z,82.58
2019-03-16T04:42:00.294Z,82.56
2019-03-16T04:47:01.768Z,82.72
2019-03-16T04:52:03.292Z,82.89
2019-03-16T04:57:04.832Z,83.02
2019-03-16T05:02:06.357Z,83.72
2019-03-16T05:07:07.960Z,84.41
2019-03-16T05:12:09.472Z,84.80
2019-03-16T05:17:10.999Z,85.11
2019-03-16T05:22:12.510Z,85.35
2019-03-16T05:27:14.040Z,85.50
2019-03-16T05:32:15.573Z,85.64
2019-03-16T05:37:17.103Z,85.89
2019-03-16T05:42:18.603Z,85.97
2019-03-16T05:47:20.186Z,86.08
2019-03-16T05:52:21.662Z,86.16
2019-03-16T05:57:23.375Z,86.13
2019-03-16T06:02:24.888Z,86.21
2019-03-16T06:07:26.529Z,86.33
2019-03-16T06:12:28.011Z,85.89
2019-03-16T06:17:29.535Z,87.53
2019-03-16T06:22:31.102Z,86.96
2019-03-16T06:27:32.607Z,86.17
2019-03-16T06:32:35.148Z,86.17
2019-03-16T06:37:36.701Z,86.77
2019-03-16T06:42:38.546Z,86.66
2019-03-16T06:47:40.059Z,86.95
2019-03-16T06:52:41.679Z,86.91
2019-03-16T06:57:43.198Z,86.73
2019-03-16T07:02:45.736Z,87.13
2019-03-16T07:07:47.239Z,86.66
2019-03-16T07:12:48.776Z,86.68
2019-03-16T07:17:50.392Z,86.87
2019-03-16T07:22:51.938Z,86.80
2019-03-16T07:27:53.423Z,87.07
2019-03-16T07:32:54.952Z,86.92
2019-03-16T07:37:56.587Z,86.85
2019-03-16T07:42:58.115Z,87.07
2019-03-16T07:47:59.702Z,86.89
2019-03-16T07:53:01.285Z,86.96
2019-03-16T07:58:02.795Z,87.28
2019-03-16T08:03:04.293Z,87.14
2019-03-16T08:08:05.866Z,87.19
2019-03-16T08:13:07.352Z,87.21
2019-03-16T08:18:08.838Z,87.24
2019-03-16T08:23:10.348Z,87.37
2019-03-16T08:28:11.931Z,87.24
2019-03-16T08:33:13.410Z,87.17
2019-03-16T08:38:14.959Z,87.27
2019-03-16T08:43:16.565Z,87.17
2019-03-16T08:48:23.222Z,87.47
2019-03-16T08:53:22.959Z,87.28
2019-03-16T08:58:24.775Z,87.18
2019-03-16T09:03:26.269Z,87.12
2019-03-16T09:08:27.799Z,86.48
2019-03-16T09:13:29.322Z,86.04
2019-03-16T09:18:30.826Z,86.12
2019-03-16T09:23:32.413Z,85.57
2019-03-16T09:28:33.985Z,85.41
2019-03-16T09:33:35.541Z,85.18
2019-03-16T09:38:36.981Z,85.03
2019-03-16T09:43:38.635Z,84.12
2019-03-16T09:48:40.169Z,83.07
2019-03-16T09:53:41.692Z,83.14
2019-03-16T09:58:43.160Z,82.81
2019-03-16T10:03:44.811Z,82.94
2019-03-16T10:08:46.398Z,82.80
2019-03-16T10:13:47.946Z,81.40
2019-03-16T10:18:49.491Z,81.48
2019-03-16T10:23:51.016Z,80.66
2019-03-16T10:28:52.485Z,80.64
2019-03-16T10:33:54.016Z,80.43
2019-03-16T10:38:55.516Z,78.97
2019-03-16T10:43:57.112Z,78.00
2019-03-16T10:48:58.592Z,77.86
2019-03-16T10:54:00.169Z,78.37
2019-03-16T10:59:01.746Z,78.40
2019-03-16T11:04:03.255Z,78.62
2019-03-16T11:09:05.372Z,76.71
2019-03-16T11:14:06.864Z,76.97
2019-03-16T11:19:08.415Z,77.73
2019-03-16T11:24:09.940Z,77.57
2019-03-16T11:29:11.445Z,77.76
2019-03-16T11:34:15.050Z,77.19
2019-03-16T11:39:16.557Z,76.90
2019-03-16T11:44:18.071Z,75.24
2019-03-16T11:49:19.712Z,76.40
2019-03-16T11:54:21.209Z,76.60
2019-03-16T11:59:22.742Z,75.61
2019-03-16T12:04:24.332Z,75.21
2019-03-16T12:09:25.987Z,75.73
2019-03-16T12:14:27.506Z,75.22
2019-03-16T12:19:29.070Z,75.17
2019-03-16T12:24:32.690Z,74.44
2019-03-16T12:29:34.559Z,75.83
2019-03-16T12:34:36.329Z,75.92
2019-03-16T12:39:38.075Z,74.22
2019-03-16T12:44:39.625Z,73.85
2019-03-16T12:49:45.602Z,73.27
2019-03-16T12:54:47.205Z,74.46
2019-03-16T12:59:48.798Z,74.63
2019-03-16T13:04:50.308Z,74.63
2019-03-16T13:09:51.817Z,75.26
2019-03-16T13:14:53.346Z,74.72
2019-03-16T13:19:54.859Z,74.63
2019-03-16T13:24:56.400Z,74.43
2019-03-16T13:29:59.192Z,74.77
2019-03-16T13:35:00.933Z,74.52
2019-03-16T13:40:03.103Z,74.33
2019-03-16T13:45:04.839Z,74.20
2019-03-16T13:50:08.079Z,73.54
2019-03-16T13:55:09.915Z,74.53
2019-03-16T14:00:12.469Z,73.71
2019-03-16T14:05:14.281Z,73.44
2019-03-16T14:10:16.263Z,73.62
2019-03-16T14:15:17.791Z,73.82
2019-03-16T14:20:19.293Z,73.74
2019-03-16T14:25:20.807Z,73.89
2019-03-16T14:30:39.433Z,73.91
2019-03-16T14:35:25.736Z,73.54
2019-03-16T14:40:27.325Z,73.31
2019-03-16T14:45:40.716Z,73.66
2019-03-16T14:50:42.243Z,73.31
2019-03-16T14:55:43.755Z,73.66
2019-03-16T15:00:45.245Z,73.21
2019-03-16T15:05:48.871Z,73.05
2019-03-16T15:10:50.394Z,73.20
2019-03-16T15:15:51.942Z,73.07
2019-03-16T15:20:53.409Z,72.73
2019-03-16T15:26:03.244Z,71.98
2019-03-16T15:31:04.734Z,71.18
2019-03-16T15:36:06.265Z,72.05
2019-03-16T15:41:07.765Z,72.59
2019-03-16T15:46:09.323Z,71.93
2019-03-16T15:51:10.807Z,72.26
2019-03-16T15:56:12.341Z,72.40
2019-03-16T16:01:13.919Z,72.33
2019-03-16T16:06:15.475Z,71.74
2019-03-16T16:11:23.079Z,72.12
2019-03-16T16:16:24.561Z,72.05
2019-03-16T16:21:26.123Z,72.30
2019-03-16T16:26:27.621Z,72.41
2019-03-16T16:31:29.183Z,72.72
2019-03-16T16:36:30.785Z,70.74
2019-03-16T16:41:32.359Z,67.72
2019-03-16T16:46:40.743Z,70.97
2019-03-16T16:51:42.238Z,70.97
2019-03-16T16:56:43.809Z,70.64
2019-03-16T17:01:45.370Z,71.71
2019-03-16T17:06:46.861Z,71.49
2019-03-16T17:11:48.450Z,71.72
2019-03-16T17:16:50.034Z,72.05
2019-03-16T17:21:51.615Z,72.47
2019-03-16T17:26:53.155Z,72.40
2019-03-16T17:31:54.640Z,72.64
2019-03-16T17:36:56.238Z,72.57
2019-03-16T17:41:57.753Z,72.87
2019-03-16T17:46:59.265Z,72.78
2019-03-16T17:52:00.868Z,72.94
2019-03-16T17:57:02.472Z,72.97
2019-03-16T18:02:04.005Z,73.23
2019-03-16T18:07:05.662Z,72.49
2019-03-16T18:12:07.261Z,73.39
2019-03-16T18:17:08.830Z,73.53
2019-03-16T18:22:10.502Z,73.70
2019-03-16T18:27:12.115Z,73.70
2019-03-16T18:32:13.715Z,73.78
2019-03-16T18:37:15.284Z,73.99
2019-03-16T18:42:16.871Z,73.91
2019-03-16T18:47:18.552Z,74.22
2019-03-16T18:52:20.332Z,74.18
2019-03-16T18:57:22.125Z,74.25
2019-03-16T19:02:23.750Z,74.25
2019-03-16T19:07:25.564Z,74.48
2019-03-16T19:12:27.326Z,74.43
2019-03-16T19:17:28.870Z,74.42
2019-03-16T19:22:30.544Z,74.37
2019-03-16T19:27:32.141Z,74.37
2019-03-16T19:32:36.579Z,74.58
2019-03-16T19:37:37.185Z,74.58
2019-03-16T19:42:38.901Z,74.68
2019-03-16T19:47:40.590Z,74.71
2019-03-16T19:52:42.222Z,74.63
2019-03-16T19:57:43.975Z,74.56
2019-03-16T20:02:50.649Z,74.45
2019-03-16T20:07:49.236Z,74.58
2019-03-16T20:12:53.068Z,74.39
2019-03-16T20:17:54.648Z,74.48
2019-03-16T20:22:56.434Z,74.59
2019-03-16T20:27:58.263Z,74.33
2019-03-16T20:33:04.684Z,74.80
2019-03-16T20:38:04.748Z,74.53
2019-03-16T20:43:06.337Z,74.92
2019-03-16T20:48:07.875Z,74.93
2019-03-16T20:53:09.496Z,74.90
2019-03-16T20:58:11.538Z,74.66
2019-03-16T21:03:16.351Z,74.74
2019-03-16T21:08:17.084Z,74.89
2019-03-16T21:13:18.688Z,74.65
2019-03-16T21:18:20.275Z,74.57
2019-03-16T21:23:21.820Z,74.52
2019-03-16T21:28:23.603Z,74.71
2019-03-16T21:33:29.723Z,74.71
2019-03-16T21:38:31.264Z,74.74
2019-03-16T21:43:36.140Z,74.69
2019-03-16T21:48:37.781Z,74.84
2019-03-16T21:53:39.415Z,74.81
2019-03-16T21:58:41.604Z,74.57
2019-03-16T22:03:43.350Z,74.80
2019-03-16T22:08:44.997Z,75.27
2019-03-16T22:13:47.406Z,75.58
2019-03-16T22:18:48.937Z,75.70
2019-03-16T22:23:50.453Z,75.55
2019-03-16T22:28:51.926Z,75.74
2019-03-16T22:33:54.766Z,75.91
2019-03-16T22:38:56.594Z,76.01
2019-03-16T22:43:58.076Z,76.01
2019-03-16T22:49:00.660Z,76.04
2019-03-16T22:54:02.277Z,75.66
2019-03-16T22:59:03.822Z,75.31
2019-03-16T23:04:07.057Z,75.02
2019-03-16T23:09:08.828Z,74.42
2019-03-16T23:14:10.307Z,74.31
2019-03-16T23:19:11.891Z,74.26
2019-03-16T23:24:13.443Z,74.22
2019-03-16T23:29:14.993Z,73.94
2019-03-16T23:34:19.268Z,74.17
2019-03-16T23:39:20.303Z,73.70
2019-03-16T23:44:21.789Z,73.74
2019-03-16T23:49:23.315Z,73.39
2019-03-16T23:54:24.868Z,73.49
2019-03-16T23:59:26.431Z,73.26
